sensor_id;sensor_type;location;lat;lon;timestamp;pressure;altitude;pressure_sealevel;temperature;humidity
72414;BME280;60995;52.154;4.498;2022-09-09T00:07:18;100635.59;;;15.96;84.41
72414;BME280;60995;52.154;4.498;2022-09-09T00:12:38;100640.38;;;16.02;84.49
72414;BME280;60995;52.154;4.498;2022-09-09T00:18:15;100630.75;;;16.07;83.92
72414;BME280;60995;52.154;4.498;2022-09-09T00:21:03;100640.69;;;15.99;84.45
72414;BME280;60995;52.154;4.498;2022-09-09T00:26:07;100641.44;;;15.93;85.18
72414;BME280;60995;52.154;4.498;2022-09-09T00:28:31;100646.22;;;15.91;85.14
72414;BME280;60995;52.154;4.498;2022-09-09T00:30:52;100640.38;;;15.94;84.80
72414;BME280;60995;52.154;4.498;2022-09-09T00:33:13;100640.22;;;15.96;85.19
72414;BME280;60995;52.154;4.498;2022-09-09T00:35:36;100630.31;;;15.95;85.02
72414;BME280;60995;52.154;4.498;2022-09-09T00:38:12;100639.34;;;15.95;84.98
72414;BME280;60995;52.154;4.498;2022-09-09T00:40:35;100632.84;;;15.96;84.76
72414;BME280;60995;52.154;4.498;2022-09-09T00:43:25;100639.03;;;15.90;85.34
72414;BME280;60995;52.154;4.498;2022-09-09T00:49:04;100632.16;;;15.94;85.64
72414;BME280;60995;52.154;4.498;2022-09-09T00:55:39;100619.88;;;15.90;85.45
72414;BME280;60995;52.154;4.498;2022-09-09T00:57:59;100622.63;;;15.90;85.62
72414;BME280;60995;52.154;4.498;2022-09-09T01:00:27;100624.38;;;15.83;86.07
72414;BME280;60995;52.154;4.498;2022-09-09T01:03:10;100628.81;;;15.76;86.85
72414;BME280;60995;52.154;4.498;2022-09-09T01:06:00;100623.63;;;15.89;86.23
72414;BME280;60995;52.154;4.498;2022-09-09T01:09:10;100623.03;;;15.62;87.47
72414;BME280;60995;52.154;4.498;2022-09-09T01:11:42;100626.44;;;15.64;87.35
72414;BME280;60995;52.154;4.498;2022-09-09T01:16:59;100626.16;;;15.59;87.84
72414;BME280;60995;52.154;4.498;2022-09-09T01:19:40;100612.09;;;15.62;87.44
72414;BME280;60995;52.154;4.498;2022-09-09T01:22:30;100618.28;;;15.56;87.48
72414;BME280;60995;52.154;4.498;2022-09-09T01:25:15;100619.84;;;15.50;87.66
72414;BME280;60995;52.154;4.498;2022-09-09T01:28:09;100610.09;;;15.39;88.25
72414;BME280;60995;52.154;4.498;2022-09-09T01:30:41;100605.00;;;15.36;88.74
72414;BME280;60995;52.154;4.498;2022-09-09T01:38:29;100602.28;;;15.28;88.34
72414;BME280;60995;52.154;4.498;2022-09-09T01:40:48;100602.28;;;15.20;88.89
72414;BME280;60995;52.154;4.498;2022-09-09T01:43:10;100604.00;;;15.21;88.96
72414;BME280;60995;52.154;4.498;2022-09-09T01:45:27;100599.25;;;15.15;88.97
72414;BME280;60995;52.154;4.498;2022-09-09T01:47:44;100598.94;;;15.10;89.66
72414;BME280;60995;52.154;4.498;2022-09-09T01:50:03;100596.16;;;15.18;89.32
72414;BME280;60995;52.154;4.498;2022-09-09T01:52:19;100593.94;;;15.13;88.88
72414;BME280;60995;52.154;4.498;2022-09-09T01:54:38;100595.31;;;15.09;89.31
72414;BME280;60995;52.154;4.498;2022-09-09T02:00:08;100589.38;;;14.97;89.22
72414;BME280;60995;52.154;4.498;2022-09-09T02:08:31;100588.34;;;14.74;90.25
72414;BME280;60995;52.154;4.498;2022-09-09T02:11:16;100590.06;;;14.75;90.50
72414;BME280;60995;52.154;4.498;2022-09-09T02:13:37;100577.94;;;14.69;90.74
72414;BME280;60995;52.154;4.498;2022-09-09T02:16:07;100581.88;;;14.75;90.51
72414;BME280;60995;52.154;4.498;2022-09-09T02:18:45;100583.41;;;14.77;90.45
72414;BME280;60995;52.154;4.498;2022-09-09T02:21:07;100581.88;;;14.75;90.30
72414;BME280;60995;52.154;4.498;2022-09-09T02:23:31;100581.00;;;14.74;90.29
72414;BME280;60995;52.154;4.498;2022-09-09T02:25:51;100583.41;;;14.77;90.06
72414;BME280;60995;52.154;4.498;2022-09-09T02:28:11;100574.03;;;14.80;90.03
72414;BME280;60995;52.154;4.498;2022-09-09T02:30:33;100568.53;;;14.71;90.59
72414;BME280;60995;52.154;4.498;2022-09-09T02:32:54;100572.81;;;14.66;90.33
72414;BME280;60995;52.154;4.498;2022-09-09T02:35:18;100560.03;;;14.75;90.51
72414;BME280;60995;52.154;4.498;2022-09-09T02:37:39;100551.66;;;14.76;89.75
72414;BME280;60995;52.154;4.498;2022-09-09T02:39:59;100557.81;;;14.70;90.12
72414;BME280;60995;52.154;4.498;2022-09-09T02:42:15;100557.59;;;14.63;90.64
72414;BME280;60995;52.154;4.498;2022-09-09T02:44:32;100549.97;;;14.67;90.40
72414;BME280;60995;52.154;4.498;2022-09-09T02:47:10;100566.53;;;14.65;90.28
72414;BME280;60995;52.154;4.498;2022-09-09T02:50:08;100558.63;;;14.62;89.95
72414;BME280;60995;52.154;4.498;2022-09-09T02:52:43;100550.97;;;14.66;90.07
72414;BME280;60995;52.154;4.498;2022-09-09T02:55:39;100552.50;;;14.60;89.95
72414;BME280;60995;52.154;4.498;2022-09-09T02:57:59;100547.56;;;14.64;90.09
72414;BME280;60995;52.154;4.498;2022-09-09T03:00:23;100553.34;;;14.61;89.71
72414;BME280;60995;52.154;4.498;2022-09-09T03:02:43;100556.44;;;14.66;89.73
72414;BME280;60995;52.154;4.498;2022-09-09T03:05:01;100560.69;;;14.60;89.39
72414;BME280;60995;52.154;4.498;2022-09-09T03:07:18;100564.09;;;14.62;89.54
72414;BME280;60995;52.154;4.498;2022-09-09T03:09:35;100558.63;;;14.62;89.62
72414;BME280;60995;52.154;4.498;2022-09-09T03:11:52;100564.47;;;14.67;89.36
72414;BME280;60995;52.154;4.498;2022-09-09T03:14:08;100552.50;;;14.60;89.49
72414;BME280;60995;52.154;4.498;2022-09-09T03:16:27;100552.50;;;14.60;89.31
72414;BME280;60995;52.154;4.498;2022-09-09T03:18:43;100553.16;;;14.62;88.77
72414;BME280;60995;52.154;4.498;2022-09-09T03:21:00;100538.16;;;14.58;89.26
72414;BME280;60995;52.154;4.498;2022-09-09T03:23:17;100538.84;;;14.60;89.50
72414;BME280;60995;52.154;4.498;2022-09-09T03:25:34;100544.63;;;14.57;89.33
72414;BME280;60995;52.154;4.498;2022-09-09T03:27:53;100539.16;;;14.57;89.29
72414;BME280;60995;52.154;4.498;2022-09-09T03:30:10;100540.53;;;14.53;89.90
72414;BME280;60995;52.154;4.498;2022-09-09T03:32:27;100533.88;;;14.55;89.22
72414;BME280;60995;52.154;4.498;2022-09-09T03:34:44;100538.50;;;14.63;89.41
72414;BME280;60995;52.154;4.498;2022-09-09T03:37:00;100541.25;;;14.55;89.25
72414;BME280;60995;52.154;4.498;2022-09-09T03:39:17;100533.03;;;14.63;89.21
72414;BME280;60995;52.154;4.498;2022-09-09T03:41:33;100529.28;;;14.56;88.96
72414;BME280;60995;52.154;4.498;2022-09-09T03:43:53;100529.13;;;14.58;88.91
72414;BME280;60995;52.154;4.498;2022-09-09T03:46:09;100533.53;;;14.59;89.02
72414;BME280;60995;52.154;4.498;2022-09-09T03:48:26;100532.00;;;14.56;88.83
72414;BME280;60995;52.154;4.498;2022-09-09T03:50:48;100533.72;;;14.49;89.52
72414;BME280;60995;52.154;4.498;2022-09-09T03:53:06;100528.59;;;14.62;88.82
72414;BME280;60995;52.154;4.498;2022-09-09T03:55:22;100535.25;;;14.51;89.09
72414;BME280;60995;52.154;4.498;2022-09-09T03:57:38;100537.97;;;14.60;88.79
72414;BME280;60995;52.154;4.498;2022-09-09T03:59:55;100534.38;;;14.51;88.75
72414;BME280;60995;52.154;4.498;2022-09-09T04:02:11;100532.88;;;14.56;88.28
72414;BME280;60995;52.154;4.498;2022-09-09T04:04:27;100529.63;;;14.45;88.99
72414;BME280;60995;52.154;4.498;2022-09-09T04:06:44;100531.66;;;14.43;89.26
72414;BME280;60995;52.154;4.498;2022-09-09T04:09:00;100524.34;;;14.51;89.14
72414;BME280;60995;52.154;4.498;2022-09-09T04:11:18;100522.97;;;14.39;89.26
72414;BME280;60995;52.154;4.498;2022-09-09T04:13:37;100523.66;;;14.41;89.24
72414;BME280;60995;52.154;4.498;2022-09-09T04:15:57;100524.66;;;14.40;89.53
72414;BME280;60995;52.154;4.498;2022-09-09T04:18:15;100522.13;;;14.38;89.63
72414;BME280;60995;52.154;4.498;2022-09-09T04:20:31;100511.72;;;14.42;89.28
72414;BME280;60995;52.154;4.498;2022-09-09T04:22:48;100503.34;;;14.44;89.12
72414;BME280;60995;52.154;4.498;2022-09-09T04:25:06;100499.59;;;14.45;88.94
72414;BME280;60995;52.154;4.498;2022-09-09T04:27:22;100501.63;;;14.51;89.34
72414;BME280;60995;52.154;4.498;2022-09-09T04:29:39;100501.97;;;14.48;89.39
72414;BME280;60995;52.154;4.498;2022-09-09T04:31:55;100505.56;;;14.48;88.96
72414;BME280;60995;52.154;4.498;2022-09-09T04:34:12;100499.25;;;14.48;89.05
72414;BME280;60995;52.154;4.498;2022-09-09T04:36:29;100503.50;;;14.50;89.16
72414;BME280;60995;52.154;4.498;2022-09-09T04:38:46;100498.22;;;14.57;88.75
72414;BME280;60995;52.154;4.498;2022-09-09T04:41:03;100506.44;;;14.49;88.96
72414;BME280;60995;52.154;4.498;2022-09-09T04:43:20;100497.03;;;14.60;88.46
72414;BME280;60995;52.154;4.498;2022-09-09T04:45:38;100483.06;;;14.46;88.98
72414;BME280;60995;52.154;4.498;2022-09-09T04:47:56;100488.84;;;14.51;88.78
72414;BME280;60995;52.154;4.498;2022-09-09T04:50:13;100491.59;;;14.43;88.92
72414;BME280;60995;52.154;4.498;2022-09-09T04:52:29;100490.91;;;14.41;88.83
72414;BME280;60995;52.154;4.498;2022-09-09T04:54:46;100491.25;;;14.46;88.60
72414;BME280;60995;52.154;4.498;2022-09-09T04:57:02;100485.94;;;14.53;88.28
72414;BME280;60995;52.154;4.498;2022-09-09T04:59:19;100487.13;;;14.50;88.08
72414;BME280;60995;52.154;4.498;2022-09-09T05:01:35;100484.94;;;14.37;88.78
72414;BME280;60995;52.154;4.498;2022-09-09T05:03:52;100488.16;;;14.41;88.57
72414;BME280;60995;52.154;4.498;2022-09-09T05:06:11;100485.25;;;14.43;88.59
72414;BME280;60995;52.154;4.498;2022-09-09T05:08:29;100482.56;;;14.34;88.52
72414;BME280;60995;52.154;4.498;2022-09-09T05:10:45;100488.34;;;14.39;88.78
72414;BME280;60995;52.154;4.498;2022-09-09T05:13:02;100487.00;;;14.35;88.77
72414;BME280;60995;52.154;4.498;2022-09-09T05:15:18;100491.22;;;14.54;88.50
72414;BME280;60995;52.154;4.498;2022-09-09T05:17:36;100485.25;;;14.51;87.78
72414;BME280;60995;52.154;4.498;2022-09-09T05:19:52;100488.69;;;14.45;88.18
72414;BME280;60995;52.154;4.498;2022-09-09T05:22:09;100482.72;;;14.41;88.31
72414;BME280;60995;52.154;4.498;2022-09-09T05:24:27;100482.22;;;14.46;88.24
72414;BME280;60995;52.154;4.498;2022-09-09T05:26:44;100488.34;;;14.48;88.34
72414;BME280;60995;52.154;4.498;2022-09-09T05:29:00;100484.25;;;14.44;88.68
72414;BME280;60995;52.154;4.498;2022-09-09T05:31:17;100475.19;;;14.51;87.88
72414;BME280;60995;52.154;4.498;2022-09-09T05:33:35;100475.03;;;14.53;87.90
72414;BME280;60995;52.154;4.498;2022-09-09T05:36:00;100474.84;;;14.63;87.82
72414;BME280;60995;52.154;4.498;2022-09-09T05:38:18;100468.53;;;14.62;87.67
72414;BME280;60995;52.154;4.498;2022-09-09T05:40:35;100473.47;;;14.75;87.23
72414;BME280;60995;52.154;4.498;2022-09-09T05:42:52;100468.16;;;14.82;87.13
72414;BME280;60995;52.154;4.498;2022-09-09T05:45:09;100473.88;;;15.12;86.40
72414;BME280;60995;52.154;4.498;2022-09-09T05:47:26;100474.59;;;15.45;84.36
72414;BME280;60995;52.154;4.498;2022-09-09T05:49:43;100477.41;;;15.60;83.62
72414;BME280;60995;52.154;4.498;2022-09-09T05:51:59;100472.22;;;15.74;83.02
72414;BME280;60995;52.154;4.498;2022-09-09T05:54:16;100490.06;;;15.61;82.92
72414;BME280;60995;52.154;4.498;2022-09-09T05:56:32;100488.78;;;15.49;84.00
72414;BME280;60995;52.154;4.498;2022-09-09T05:58:49;100492.84;;;15.53;83.86
72414;BME280;60995;52.154;4.498;2022-09-09T06:01:11;100489.41;;;15.59;84.05
72414;BME280;60995;52.154;4.498;2022-09-09T06:03:40;100491.41;;;15.65;83.66
72414;BME280;60995;52.154;4.498;2022-09-09T06:06:02;100492.69;;;15.86;83.48
72414;BME280;60995;52.154;4.498;2022-09-09T06:08:21;100490.88;;;16.01;82.89
72414;BME280;60995;52.154;4.498;2022-09-09T06:10:37;100493.19;;;16.13;81.89
72414;BME280;60995;52.154;4.498;2022-09-09T06:12:53;100491.25;;;15.98;82.81
72414;BME280;60995;52.154;4.498;2022-09-09T06:15:10;100490.03;;;16.01;83.13
72414;BME280;60995;52.154;4.498;2022-09-09T06:17:26;100488.56;;;16.13;82.01
72414;BME280;60995;52.154;4.498;2022-09-09T06:19:42;100481.94;;;16.08;82.18
72414;BME280;60995;52.154;4.498;2022-09-09T06:21:59;100489.72;;;16.19;82.07
72414;BME280;60995;52.154;4.498;2022-09-09T06:24:15;100489.66;;;16.27;81.51
72414;BME280;60995;52.154;4.498;2022-09-09T06:26:39;100482.72;;;16.16;81.44
72414;BME280;60995;52.154;4.498;2022-09-09T06:28:57;100487.56;;;16.29;81.04
72414;BME280;60995;52.154;4.498;2022-09-09T06:31:16;100488.91;;;16.33;80.86
72414;BME280;60995;52.154;4.498;2022-09-09T06:33:39;100490.66;;;16.49;80.55
72414;BME280;60995;52.154;4.498;2022-09-09T06:36:01;100493.13;;;16.59;79.56
72414;BME280;60995;52.154;4.498;2022-09-09T06:38:19;100497.06;;;16.42;79.78
72414;BME280;60995;52.154;4.498;2022-09-09T06:40:37;100503.44;;;16.57;78.84
72414;BME280;60995;52.154;4.498;2022-09-09T06:42:53;100497.38;;;16.62;78.89
72414;BME280;60995;52.154;4.498;2022-09-09T06:45:10;100487.22;;;16.70;78.62
72414;BME280;60995;52.154;4.498;2022-09-09T06:47:28;100493.06;;;16.67;78.23
72414;BME280;60995;52.154;4.498;2022-09-09T06:49:44;100485.66;;;16.53;78.94
72414;BME280;60995;52.154;4.498;2022-09-09T06:52:01;100488.97;;;16.63;78.22
72414;BME280;60995;52.154;4.498;2022-09-09T06:54:17;100491.91;;;16.62;78.86
72414;BME280;60995;52.154;4.498;2022-09-09T06:56:40;100495.13;;;16.65;78.61
72414;BME280;60995;52.154;4.498;2022-09-09T06:59:00;100495.16;;;16.80;77.92
72414;BME280;60995;52.154;4.498;2022-09-09T07:01:24;100495.44;;;16.70;78.09
72414;BME280;60995;52.154;4.498;2022-09-09T07:03:45;100495.28;;;16.87;77.40
72414;BME280;60995;52.154;4.498;2022-09-09T07:06:07;100496.28;;;16.71;78.08
72414;BME280;60995;52.154;4.498;2022-09-09T07:08:30;100493.06;;;16.67;78.24
72414;BME280;60995;52.154;4.498;2022-09-09T07:10:47;100498.38;;;16.84;78.07
72414;BME280;60995;52.154;4.498;2022-09-09T07:13:03;100493.19;;;16.89;77.85
72414;BME280;60995;52.154;4.498;2022-09-09T07:15:20;100497.81;;;16.89;77.93
72414;BME280;60995;52.154;4.498;2022-09-09T07:17:38;100491.72;;;17.01;77.26
72414;BME280;60995;52.154;4.498;2022-09-09T07:19:54;100484.81;;;17.20;76.76
72414;BME280;60995;52.154;4.498;2022-09-09T07:22:12;100492.47;;;17.25;76.14
72414;BME280;60995;52.154;4.498;2022-09-09T07:24:29;100480.50;;;17.48;75.38
72414;BME280;60995;52.154;4.498;2022-09-09T07:26:46;100492.28;;;17.42;75.51
72414;BME280;60995;52.154;4.498;2022-09-09T07:29:03;100491.03;;;17.29;75.22
72414;BME280;60995;52.154;4.498;2022-09-09T07:31:23;100486.22;;;17.31;75.48
72414;BME280;60995;52.154;4.498;2022-09-09T07:33:51;100488.69;;;17.26;75.30
72414;BME280;60995;52.154;4.498;2022-09-09T07:36:16;100484.34;;;17.02;76.47
72414;BME280;60995;52.154;4.498;2022-09-09T07:38:41;100490.94;;;17.08;76.89
72414;BME280;60995;52.154;4.498;2022-09-09T07:41:05;100497.50;;;17.07;76.84
72414;BME280;60995;52.154;4.498;2022-09-09T07:43:26;100495.69;;;17.14;76.71
72414;BME280;60995;52.154;4.498;2022-09-09T07:45:42;100488.19;;;17.08;76.99
72414;BME280;60995;52.154;4.498;2022-09-09T07:47:59;100485.56;;;16.99;77.50
72414;BME280;60995;52.154;4.498;2022-09-09T07:50:15;100496.03;;;16.96;77.56
72414;BME280;60995;52.154;4.498;2022-09-09T07:52:33;100499.03;;;16.86;77.90
72414;BME280;60995;52.154;4.498;2022-09-09T07:54:50;100497.13;;;16.72;78.17
72414;BME280;60995;52.154;4.498;2022-09-09T07:57:06;100493.63;;;16.78;77.96
72414;BME280;60995;52.154;4.498;2022-09-09T07:59:22;100491.38;;;16.66;78.26
72414;BME280;60995;52.154;4.498;2022-09-09T08:01:43;100492.16;;;16.75;78.16
72414;BME280;60995;52.154;4.498;2022-09-09T08:04:11;100495.28;;;16.87;77.64
72414;BME280;60995;52.154;4.498;2022-09-09T08:06:36;100494.22;;;16.88;77.88
72414;BME280;60995;52.154;4.498;2022-09-09T08:08:57;100494.75;;;17.07;77.12
72414;BME280;60995;52.154;4.498;2022-09-09T08:11:14;100491.72;;;17.16;76.69
72414;BME280;60995;52.154;4.498;2022-09-09T08:13:31;100497.09;;;17.10;76.69
72414;BME280;60995;52.154;4.498;2022-09-09T08:15:49;100489.66;;;17.18;76.53
72414;BME280;60995;52.154;4.498;2022-09-09T08:18:06;100488.50;;;17.13;76.76
72414;BME280;60995;52.154;4.498;2022-09-09T08:20:22;100493.63;;;17.16;76.58
72414;BME280;60995;52.154;4.498;2022-09-09T08:22:39;100488.84;;;17.40;75.96
72414;BME280;60995;52.154;4.498;2022-09-09T08:24:55;100497.16;;;17.61;74.58
72414;BME280;60995;52.154;4.498;2022-09-09T08:27:12;100490.72;;;17.54;75.28
72414;BME280;60995;52.154;4.498;2022-09-09T08:29:28;100491.31;;;17.34;75.30
72414;BME280;60995;52.154;4.498;2022-09-09T08:31:49;100491.72;;;17.31;75.78
72414;BME280;60995;52.154;4.498;2022-09-09T08:34:07;100483.78;;;17.36;75.51
72414;BME280;60995;52.154;4.498;2022-09-09T08:36:27;100484.97;;;17.49;75.17
72414;BME280;60995;52.154;4.498;2022-09-09T08:38:53;100487.91;;;17.47;75.11
72414;BME280;60995;52.154;4.498;2022-09-09T08:41:25;100494.97;;;17.57;74.86
72414;BME280;60995;52.154;4.498;2022-09-09T08:52:13;100500.97;;;17.30;75.88
72414;BME280;60995;52.154;4.498;2022-09-09T08:54:34;100504.06;;;17.27;76.11
72414;BME280;60995;52.154;4.498;2022-09-09T08:56:52;100495.69;;;17.29;76.27
72414;BME280;60995;52.154;4.498;2022-09-09T08:59:10;100495.56;;;17.22;76.73
72414;BME280;60995;52.154;4.498;2022-09-09T09:12:46;100501.56;;;17.11;78.07
72414;BME280;60995;52.154;4.498;2022-09-09T09:15:14;100506.06;;;17.03;77.81
72414;BME280;60995;52.154;4.498;2022-09-09T09:17:37;100506.56;;;17.07;78.02
72414;BME280;60995;52.154;4.498;2022-09-09T09:19:54;100503.31;;;17.03;77.94
72414;BME280;60995;52.154;4.498;2022-09-09T09:27:38;100520.25;;;16.08;85.37
72414;BME280;60995;52.154;4.498;2022-09-09T09:30:16;100511.69;;;16.11;86.61
72414;BME280;60995;52.154;4.498;2022-09-09T09:32:35;100506.81;;;16.21;86.32
72414;BME280;60995;52.154;4.498;2022-09-09T09:34:56;100500.97;;;16.24;87.06
72414;BME280;60995;52.154;4.498;2022-09-09T09:37:23;100505.94;;;16.44;86.08
72414;BME280;60995;52.154;4.498;2022-09-09T09:39:45;100515.22;;;16.43;86.59
72414;BME280;60995;52.154;4.498;2022-09-09T09:42:27;100506.31;;;16.41;85.85
72414;BME280;60995;52.154;4.498;2022-09-09T09:44:44;100503.16;;;16.52;85.92
72414;BME280;60995;52.154;4.498;2022-09-09T09:47:17;100491.72;;;17.01;84.29
72414;BME280;60995;52.154;4.498;2022-09-09T09:49:35;100490.19;;;17.14;84.00
72414;BME280;60995;52.154;4.498;2022-09-09T09:51:52;100496.81;;;17.34;83.28
72414;BME280;60995;52.154;4.498;2022-09-09T09:56:53;100492.66;;;17.09;83.12
72414;BME280;60995;52.154;4.498;2022-09-09T10:01:43;100507.78;;;17.34;81.99
72414;BME280;60995;52.154;4.498;2022-09-09T10:04:18;100498.59;;;17.27;82.01
72414;BME280;60995;52.154;4.498;2022-09-09T10:06:37;100497.88;;;17.18;82.66
72414;BME280;60995;52.154;4.498;2022-09-09T10:08:55;100503.53;;;17.32;82.84
72414;BME280;60995;52.154;4.498;2022-09-09T10:11:18;100503.25;;;17.42;82.01
72414;BME280;60995;52.154;4.498;2022-09-09T10:13:47;100494.91;;;17.86;81.20
72414;BME280;60995;52.154;4.498;2022-09-09T10:16:52;100498.69;;;17.85;80.23
72414;BME280;60995;52.154;4.498;2022-09-09T10:19:16;100492.03;;;17.58;81.33
72414;BME280;60995;52.154;4.498;2022-09-09T10:24:47;100497.56;;;16.98;83.59
72414;BME280;60995;52.154;4.498;2022-09-09T10:30:23;100498.75;;;16.81;85.47
72414;BME280;60995;52.154;4.498;2022-09-09T10:35:26;100504.53;;;16.86;85.94
72414;BME280;60995;52.154;4.498;2022-09-09T10:40:36;100498.75;;;16.81;86.60
72414;BME280;60995;52.154;4.498;2022-09-09T10:46:16;100502.31;;;16.66;87.43
72414;BME280;60995;52.154;4.498;2022-09-09T10:57:15;100500.81;;;17.17;85.17
72414;BME280;60995;52.154;4.498;2022-09-09T10:59:53;100486.00;;;17.48;83.60
72414;BME280;60995;52.154;4.498;2022-09-09T11:02:29;100491.50;;;17.84;82.00
72414;BME280;60995;52.154;4.498;2022-09-09T11:07:21;100480.84;;;18.61;78.70
72414;BME280;60995;52.154;4.498;2022-09-09T11:09:53;100492.66;;;18.55;78.65
72414;BME280;60995;52.154;4.498;2022-09-09T11:12:13;100485.97;;;18.64;77.47
72414;BME280;60995;52.154;4.498;2022-09-09T11:14:48;100481.22;;;18.80;78.24
72414;BME280;60995;52.154;4.498;2022-09-09T11:17:25;100482.13;;;19.22;76.30
72414;BME280;60995;52.154;4.498;2022-09-09T11:19:49;100485.16;;;18.99;75.72
72414;BME280;60995;52.154;4.498;2022-09-09T11:23:06;100493.06;;;19.50;74.15
72414;BME280;60995;52.154;4.498;2022-09-09T11:27:33;100496.56;;;18.96;75.62
72414;BME280;60995;52.154;4.498;2022-09-09T11:30:18;100490.94;;;18.54;76.95
72414;BME280;60995;52.154;4.498;2022-09-09T11:39:09;100496.47;;;18.11;79.24
72414;BME280;60995;52.154;4.498;2022-09-09T11:41:07;100492.66;;;18.12;78.96
72414;BME280;60995;52.154;4.498;2022-09-09T11:43:31;100488.88;;;18.13;78.83
72414;BME280;60995;52.154;4.498;2022-09-09T11:45:56;100485.13;;;17.99;79.71
72414;BME280;60995;52.154;4.498;2022-09-09T11:50:57;100486.69;;;17.72;82.76
72414;BME280;60995;52.154;4.498;2022-09-09T11:53:20;100483.66;;;17.45;84.01
72414;BME280;60995;52.154;4.498;2022-09-09T11:55:38;100502.69;;;17.31;85.08
72414;BME280;60995;52.154;4.498;2022-09-09T11:58:02;100503.03;;;17.28;85.73
72414;BME280;60995;52.154;4.498;2022-09-09T12:00:38;100501.47;;;17.04;87.65
72414;BME280;60995;52.154;4.498;2022-09-09T12:03:01;100499.44;;;17.13;87.33
72414;BME280;60995;52.154;4.498;2022-09-09T12:05:18;100502.28;;;17.05;87.72
72414;BME280;60995;52.154;4.498;2022-09-09T12:07:39;100493.03;;;17.06;87.56
72414;BME280;60995;52.154;4.498;2022-09-09T12:12:42;100491.47;;;17.48;86.44
72414;BME280;60995;52.154;4.498;2022-09-09T12:17:26;100500.13;;;18.40;83.16
72414;BME280;60995;52.154;4.498;2022-09-09T12:19:43;100492.38;;;18.78;81.21
72414;BME280;60995;52.154;4.498;2022-09-09T12:28:09;100486.50;;;18.81;78.94
72414;BME280;60995;52.154;4.498;2022-09-09T12:34:20;100493.06;;;18.59;80.58
72414;BME280;60995;52.154;4.498;2022-09-09T12:36:58;100505.72;;;18.53;80.98
72414;BME280;60995;52.154;4.498;2022-09-09T12:41:52;100501.56;;;18.35;80.85
72414;BME280;60995;52.154;4.498;2022-09-09T12:44:13;100503.63;;;18.12;82.36
72414;BME280;60995;52.154;4.498;2022-09-09T12:46:36;100502.47;;;18.21;81.16
72414;BME280;60995;52.154;4.498;2022-09-09T12:48:56;100502.44;;;18.64;80.45
72414;BME280;60995;52.154;4.498;2022-09-09T12:51:28;100509.56;;;18.87;79.00
72414;BME280;60995;52.154;4.498;2022-09-09T12:53:54;100500.41;;;19.01;78.96
72414;BME280;60995;52.154;4.498;2022-09-09T12:56:20;100511.56;;;18.93;78.67
72414;BME280;60995;52.154;4.498;2022-09-09T12:58:38;100496.44;;;19.11;77.73
72414;BME280;60995;52.154;4.498;2022-09-09T13:00:56;100507.25;;;18.84;78.96
72414;BME280;60995;52.154;4.498;2022-09-09T13:03:18;100507.06;;;19.14;77.90
72414;BME280;60995;52.154;4.498;2022-09-09T13:05:41;100505.78;;;19.16;77.09
72414;BME280;60995;52.154;4.498;2022-09-09T13:08:17;100501.00;;;19.32;76.67
72414;BME280;60995;52.154;4.498;2022-09-09T13:11:19;100507.13;;;19.27;76.94
72414;BME280;60995;52.154;4.498;2022-09-09T13:13:38;100505.59;;;19.18;77.71
72414;BME280;60995;52.154;4.498;2022-09-09T13:15:58;100509.16;;;19.12;77.79
72414;BME280;60995;52.154;4.498;2022-09-09T13:18:15;100501.50;;;18.79;78.69
72414;BME280;60995;52.154;4.498;2022-09-09T13:20:35;100499.78;;;18.78;78.94
72414;BME280;60995;52.154;4.498;2022-09-09T13:22:54;100496.28;;;19.19;79.36
72414;BME280;60995;52.154;4.498;2022-09-09T13:28:43;100498.84;;;19.76;77.02
72414;BME280;60995;52.154;4.498;2022-09-09T13:31:22;100501.91;;;19.46;78.49
72414;BME280;60995;52.154;4.498;2022-09-09T13:33:45;100507.22;;;19.47;76.84
72414;BME280;60995;52.154;4.498;2022-09-09T13:36:10;100512.13;;;19.17;78.79
72414;BME280;60995;52.154;4.498;2022-09-09T13:38:35;100508.81;;;19.28;78.56
72414;BME280;60995;52.154;4.498;2022-09-09T13:40:59;100520.69;;;19.36;78.55
72414;BME280;60995;52.154;4.498;2022-09-09T13:43:22;100512.69;;;19.41;78.44
72414;BME280;60995;52.154;4.498;2022-09-09T13:45:40;100502.38;;;19.14;78.92
72414;BME280;60995;52.154;4.498;2022-09-09T13:47:56;100508.16;;;18.91;80.12
72414;BME280;60995;52.154;4.498;2022-09-09T13:52:38;100509.09;;;19.05;79.51
72414;BME280;60995;52.154;4.498;2022-09-09T13:54:56;100502.28;;;18.94;78.63
72414;BME280;60995;52.154;4.498;2022-09-09T13:57:16;100511.50;;;18.87;80.01
72414;BME280;60995;52.154;4.498;2022-09-09T13:59:34;100509.69;;;18.72;79.41
72414;BME280;60995;52.154;4.498;2022-09-09T14:01:50;100512.16;;;18.39;80.55
72414;BME280;60995;52.154;4.498;2022-09-09T14:04:10;100517.50;;;18.47;80.41
72414;BME280;60995;52.154;4.498;2022-09-09T14:06:26;100522.41;;;18.30;79.81
72414;BME280;60995;52.154;4.498;2022-09-09T14:08:43;100524.84;;;18.18;79.49
72414;BME280;60995;52.154;4.498;2022-09-09T14:11:01;100514.97;;;18.02;79.67
72414;BME280;60995;52.154;4.498;2022-09-09T14:13:18;100521.13;;;17.74;81.09
72414;BME280;60995;52.154;4.498;2022-09-09T14:15:34;100511.53;;;17.63;79.93
72414;BME280;60995;52.154;4.498;2022-09-09T14:17:51;100517.78;;;17.42;82.07
72414;BME280;60995;52.154;4.498;2022-09-09T14:20:09;100511.63;;;17.40;82.08
72414;BME280;60995;52.154;4.498;2022-09-09T14:22:27;100519.50;;;17.28;81.88
72414;BME280;60995;52.154;4.498;2022-09-09T14:24:44;100531.13;;;17.30;83.15
72414;BME280;60995;52.154;4.498;2022-09-09T14:27:00;100533.22;;;17.13;84.29
72414;BME280;60995;52.154;4.498;2022-09-09T14:29:16;100538.41;;;17.08;85.32
72414;BME280;60995;52.154;4.498;2022-09-09T14:31:33;100542.19;;;17.37;84.58
72414;BME280;60995;52.154;4.498;2022-09-09T14:33:49;100529.31;;;17.38;84.89